Fort Smith Regional Airport (KFSM) Information & Weather

WARNING: the data listed below is for informational purposes only and should be confirmed from official sources. Data presented here on this page may be out of date, incomplete or wrong.

Name: Fort Smith Regional Airport
Identifier: KFSM

Coord: 35.3366N 94.3674W
Var: 2°E

Country: United States
Municipality: FT SMITH, AR
Time Zone: (GMT-06:00) America/Chicago

Station Elevation: 469 ft
Pressure Altitude: 306 ft
Density Altitude: 1690 ft
Freezing Level: 13095 ft

Civil Twilight
Morning: 10:52 UTC  (04:52 local)
Evening: 01:35 UTC  (19:35 local)

Flight Category: VFR (44 minutes ago)

METAR KFSM 061953Z 00000KT 10SM CLR 25/06 A3008 RMK AO2 SLP183 T02500056= [toggle past 4 hours]

TAF KFSM 061720Z 0618/0718 08004KT P6SM FEW250 FM071600 12006KT P6SM SCT250=

Upper Winds

Source   Valid 375 1000 2000 2500 3000 5000 6000 8000 10000 12000 14000 16000 18000 21000 24000 26000 30000 34000 39000 44000 52000 60000
GFS 0618/0621 2902+23 2903+21 2903+19 2803+17 2803+15 3603+11 0313+09 0316+06 0219+03 0022+00 3628-04 3629-08 3527-13 3428-18 3332-24 3339-31 3348-40 3252-50 3161-60 3169-65 3141-64 3125-64

SIGMET/AIRMET

None within 25nm.

PIREP

None within 25nm.

NOTAM

None within 25nm.

Runway Data

Frequencies

Nearby Airports

Nearby Navaids